sensor_id;sensor_type;location;lat;lon;timestamp;P1;durP1;ratioP1;P2;durP2;ratioP2
22172;SDS011;11252;50.596;17.648;2023-02-22T00:01:42;15.47;;;4.33;;
22172;SDS011;11252;50.596;17.648;2023-02-22T00:04:36;13.53;;;4.00;;
22172;SDS011;11252;50.596;17.648;2023-02-22T00:07:07;12.03;;;4.17;;
22172;SDS011;11252;50.596;17.648;2023-02-22T00:09:34;18.30;;;5.17;;
22172;SDS011;11252;50.596;17.648;2023-02-22T00:12:02;16.63;;;4.97;;
22172;SDS011;11252;50.596;17.648;2023-02-22T00:14:29;13.93;;;4.37;;
22172;SDS011;11252;50.596;17.648;2023-02-22T00:16:59;11.73;;;4.83;;
22172;SDS011;11252;50.596;17.648;2023-02-22T00:19:27;12.23;;;3.67;;
22172;SDS011;11252;50.596;17.648;2023-02-22T00:21:57;12.60;;;4.33;;
22172;SDS011;11252;50.596;17.648;2023-02-22T00:24:24;18.90;;;5.80;;
22172;SDS011;11252;50.596;17.648;2023-02-22T00:26:52;14.20;;;4.50;;
22172;SDS011;11252;50.596;17.648;2023-02-22T00:29:24;14.23;;;5.00;;
22172;SDS011;11252;50.596;17.648;2023-02-22T00:31:51;19.43;;;4.87;;
22172;SDS011;11252;50.596;17.648;2023-02-22T00:34:19;14.10;;;4.50;;
22172;SDS011;11252;50.596;17.648;2023-02-22T00:36:49;17.63;;;5.43;;
22172;SDS011;11252;50.596;17.648;2023-02-22T00:39:16;12.37;;;4.47;;
22172;SDS011;11252;50.596;17.648;2023-02-22T00:41:44;19.43;;;4.47;;
22172;SDS011;11252;50.596;17.648;2023-02-22T00:44:11;18.57;;;5.87;;
22172;SDS011;11252;50.596;17.648;2023-02-22T00:46:38;13.27;;;5.00;;
22172;SDS011;11252;50.596;17.648;2023-02-22T00:49:06;15.00;;;5.07;;
22172;SDS011;11252;50.596;17.648;2023-02-22T00:51:33;12.67;;;3.87;;
22172;SDS011;11252;50.596;17.648;2023-02-22T00:54:00;14.30;;;4.67;;
22172;SDS011;11252;50.596;17.648;2023-02-22T00:56:28;14.20;;;4.70;;
22172;SDS011;11252;50.596;17.648;2023-02-22T00:58:55;15.47;;;4.20;;
22172;SDS011;11252;50.596;17.648;2023-02-22T01:01:22;17.60;;;5.17;;
22172;SDS011;11252;50.596;17.648;2023-02-22T01:03:50;17.03;;;5.03;;
22172;SDS011;11252;50.596;17.648;2023-02-22T01:06:18;17.10;;;5.07;;
22172;SDS011;11252;50.596;17.648;2023-02-22T01:08:46;14.03;;;5.43;;
22172;SDS011;11252;50.596;17.648;2023-02-22T01:11:14;13.47;;;4.70;;
22172;SDS011;11252;50.596;17.648;2023-02-22T01:13:43;15.27;;;4.93;;
22172;SDS011;11252;50.596;17.648;2023-02-22T01:16:13;14.67;;;5.30;;
22172;SDS011;11252;50.596;17.648;2023-02-22T01:18:40;21.23;;;6.70;;
22172;SDS011;11252;50.596;17.648;2023-02-22T01:21:08;13.97;;;4.93;;
22172;SDS011;11252;50.596;17.648;2023-02-22T01:23:35;23.57;;;7.67;;
22172;SDS011;11252;50.596;17.648;2023-02-22T01:26:02;25.13;;;7.10;;
22172;SDS011;11252;50.596;17.648;2023-02-22T01:28:31;17.33;;;6.63;;
22172;SDS011;11252;50.596;17.648;2023-02-22T01:31:00;18.23;;;7.17;;
22172;SDS011;11252;50.596;17.648;2023-02-22T01:33:28;23.67;;;8.70;;
22172;SDS011;11252;50.596;17.648;2023-02-22T01:35:56;21.50;;;8.20;;
22172;SDS011;11252;50.596;17.648;2023-02-22T01:38:25;23.67;;;8.70;;
22172;SDS011;11252;50.596;17.648;2023-02-22T01:40:53;18.77;;;6.27;;
22172;SDS011;11252;50.596;17.648;2023-02-22T01:43:22;17.40;;;6.23;;
22172;SDS011;11252;50.596;17.648;2023-02-22T01:46:03;19.33;;;5.57;;
22172;SDS011;11252;50.596;17.648;2023-02-22T01:48:48;11.80;;;4.60;;
22172;SDS011;11252;50.596;17.648;2023-02-22T01:51:26;18.00;;;5.10;;
22172;SDS011;11252;50.596;17.648;2023-02-22T01:54:14;25.07;;;6.50;;
22172;SDS011;11252;50.596;17.648;2023-02-22T01:56:58;21.37;;;5.50;;
22172;SDS011;11252;50.596;17.648;2023-02-22T01:59:28;10.43;;;4.20;;
22172;SDS011;11252;50.596;17.648;2023-02-22T02:02:03;16.93;;;4.97;;
22172;SDS011;11252;50.596;17.648;2023-02-22T02:04:31;16.37;;;5.20;;
22172;SDS011;11252;50.596;17.648;2023-02-22T02:07:00;12.80;;;4.90;;
22172;SDS011;11252;50.596;17.648;2023-02-22T02:10:18;13.77;;;4.77;;
22172;SDS011;11252;50.596;17.648;2023-02-22T02:12:23;13.97;;;4.30;;
22172;SDS011;11252;50.596;17.648;2023-02-22T02:14:51;16.53;;;5.73;;
22172;SDS011;11252;50.596;17.648;2023-02-22T02:17:20;19.07;;;5.00;;
22172;SDS011;11252;50.596;17.648;2023-02-22T02:20:09;21.83;;;6.07;;
22172;SDS011;11252;50.596;17.648;2023-02-22T02:37:08;23.13;;;6.90;;
22172;SDS011;11252;50.596;17.648;2023-02-22T02:42:23;22.20;;;7.97;;
22172;SDS011;11252;50.596;17.648;2023-02-22T02:45:11;15.77;;;6.83;;
22172;SDS011;11252;50.596;17.648;2023-02-22T02:47:47;15.07;;;6.17;;
22172;SDS011;11252;50.596;17.648;2023-02-22T02:50:23;19.40;;;6.80;;
22172;SDS011;11252;50.596;17.648;2023-02-22T02:52:57;20.30;;;6.40;;
22172;SDS011;11252;50.596;17.648;2023-02-22T02:55:28;13.40;;;5.80;;
22172;SDS011;11252;50.596;17.648;2023-02-22T02:57:57;17.00;;;6.23;;
22172;SDS011;11252;50.596;17.648;2023-02-22T03:00:26;16.23;;;8.00;;
22172;SDS011;11252;50.596;17.648;2023-02-22T03:12:04;30.07;;;15.77;;
22172;SDS011;11252;50.596;17.648;2023-02-22T03:20:15;26.40;;;17.43;;
22172;SDS011;11252;50.596;17.648;2023-02-22T03:26:21;28.93;;;17.90;;
22172;SDS011;11252;50.596;17.648;2023-02-22T03:28:52;29.57;;;17.80;;
22172;SDS011;11252;50.596;17.648;2023-02-22T03:31:23;29.13;;;16.70;;
22172;SDS011;11252;50.596;17.648;2023-02-22T03:34:05;26.10;;;16.27;;
22172;SDS011;11252;50.596;17.648;2023-02-22T03:36:46;28.20;;;15.77;;
22172;SDS011;11252;50.596;17.648;2023-02-22T03:39:18;29.43;;;15.03;;
22172;SDS011;11252;50.596;17.648;2023-02-22T03:41:47;22.87;;;11.17;;
22172;SDS011;11252;50.596;17.648;2023-02-22T03:44:17;24.17;;;10.77;;
22172;SDS011;11252;50.596;17.648;2023-02-22T03:46:50;18.40;;;9.87;;
22172;SDS011;11252;50.596;17.648;2023-02-22T03:51:55;19.10;;;8.53;;
22172;SDS011;11252;50.596;17.648;2023-02-22T03:54:23;20.93;;;9.47;;
22172;SDS011;11252;50.596;17.648;2023-02-22T03:56:54;27.37;;;11.07;;
22172;SDS011;11252;50.596;17.648;2023-02-22T03:59:36;26.57;;;17.73;;
22172;SDS011;11252;50.596;17.648;2023-02-22T04:02:04;41.73;;;22.37;;
22172;SDS011;11252;50.596;17.648;2023-02-22T04:04:31;37.30;;;20.70;;
22172;SDS011;11252;50.596;17.648;2023-02-22T04:06:58;25.90;;;16.43;;
22172;SDS011;11252;50.596;17.648;2023-02-22T04:09:43;29.10;;;13.33;;
22172;SDS011;11252;50.596;17.648;2023-02-22T04:12:10;17.47;;;9.83;;
22172;SDS011;11252;50.596;17.648;2023-02-22T04:14:38;27.47;;;14.83;;
22172;SDS011;11252;50.596;17.648;2023-02-22T04:17:06;35.37;;;16.23;;
22172;SDS011;11252;50.596;17.648;2023-02-22T04:19:34;25.17;;;13.30;;
22172;SDS011;11252;50.596;17.648;2023-02-22T04:22:03;23.10;;;10.20;;
22172;SDS011;11252;50.596;17.648;2023-02-22T04:24:30;24.23;;;9.70;;
22172;SDS011;11252;50.596;17.648;2023-02-22T04:26:57;20.70;;;8.67;;
22172;SDS011;11252;50.596;17.648;2023-02-22T04:29:24;20.67;;;9.40;;
22172;SDS011;11252;50.596;17.648;2023-02-22T04:31:52;26.00;;;10.73;;
22172;SDS011;11252;50.596;17.648;2023-02-22T04:34:19;20.30;;;8.63;;
22172;SDS011;11252;50.596;17.648;2023-02-22T04:36:49;24.37;;;9.57;;
22172;SDS011;11252;50.596;17.648;2023-02-22T04:39:16;24.37;;;11.47;;
22172;SDS011;11252;50.596;17.648;2023-02-22T04:41:46;28.30;;;11.80;;
22172;SDS011;11252;50.596;17.648;2023-02-22T04:44:14;28.37;;;16.17;;
22172;SDS011;11252;50.596;17.648;2023-02-22T04:46:41;33.40;;;14.83;;
22172;SDS011;11252;50.596;17.648;2023-02-22T04:49:08;26.93;;;12.40;;
22172;SDS011;11252;50.596;17.648;2023-02-22T04:51:35;27.83;;;13.50;;
22172;SDS011;11252;50.596;17.648;2023-02-22T04:54:03;20.07;;;10.53;;
22172;SDS011;11252;50.596;17.648;2023-02-22T04:56:30;22.07;;;9.87;;
22172;SDS011;11252;50.596;17.648;2023-02-22T04:58:57;18.70;;;9.40;;
22172;SDS011;11252;50.596;17.648;2023-02-22T05:01:29;16.93;;;7.50;;
22172;SDS011;11252;50.596;17.648;2023-02-22T05:04:00;16.57;;;6.87;;
22172;SDS011;11252;50.596;17.648;2023-02-22T05:06:28;16.40;;;7.20;;
22172;SDS011;11252;50.596;17.648;2023-02-22T05:08:56;20.70;;;7.77;;
22172;SDS011;11252;50.596;17.648;2023-02-22T05:11:25;19.73;;;9.67;;
22172;SDS011;11252;50.596;17.648;2023-02-22T05:13:52;25.27;;;9.93;;
22172;SDS011;11252;50.596;17.648;2023-02-22T05:16:19;19.57;;;8.93;;
22172;SDS011;11252;50.596;17.648;2023-02-22T05:18:47;17.97;;;8.43;;
22172;SDS011;11252;50.596;17.648;2023-02-22T05:21:14;18.23;;;8.93;;
22172;SDS011;11252;50.596;17.648;2023-02-22T05:23:42;17.77;;;8.50;;
22172;SDS011;11252;50.596;17.648;2023-02-22T05:26:09;18.80;;;9.80;;
22172;SDS011;11252;50.596;17.648;2023-02-22T05:28:37;18.43;;;10.73;;
22172;SDS011;11252;50.596;17.648;2023-02-22T05:31:04;22.23;;;10.00;;
22172;SDS011;11252;50.596;17.648;2023-02-22T05:33:33;26.40;;;11.03;;
22172;SDS011;11252;50.596;17.648;2023-02-22T05:36:00;24.97;;;13.27;;
22172;SDS011;11252;50.596;17.648;2023-02-22T05:38:27;27.70;;;12.93;;
22172;SDS011;11252;50.596;17.648;2023-02-22T05:40:55;33.53;;;18.30;;
22172;SDS011;11252;50.596;17.648;2023-02-22T05:43:23;53.60;;;25.83;;
22172;SDS011;11252;50.596;17.648;2023-02-22T05:45:50;31.23;;;18.87;;
22172;SDS011;11252;50.596;17.648;2023-02-22T05:48:17;40.57;;;23.63;;
22172;SDS011;11252;50.596;17.648;2023-02-22T05:50:47;40.80;;;20.23;;
22172;SDS011;11252;50.596;17.648;2023-02-22T05:53:15;38.17;;;20.60;;
22172;SDS011;11252;50.596;17.648;2023-02-22T05:55:43;34.47;;;19.50;;
22172;SDS011;11252;50.596;17.648;2023-02-22T05:58:11;42.23;;;21.33;;
22172;SDS011;11252;50.596;17.648;2023-02-22T06:00:39;67.93;;;45.77;;
22172;SDS011;11252;50.596;17.648;2023-02-22T06:03:06;78.30;;;46.30;;
22172;SDS011;11252;50.596;17.648;2023-02-22T06:05:35;81.03;;;56.70;;
22172;SDS011;11252;50.596;17.648;2023-02-22T06:08:03;217.17;;;143.73;;
22172;SDS011;11252;50.596;17.648;2023-02-22T06:10:32;241.63;;;147.00;;
22172;SDS011;11252;50.596;17.648;2023-02-22T06:12:59;136.20;;;79.57;;
22172;SDS011;11252;50.596;17.648;2023-02-22T06:15:28;70.83;;;40.60;;
22172;SDS011;11252;50.596;17.648;2023-02-22T06:17:57;48.83;;;28.03;;
22172;SDS011;11252;50.596;17.648;2023-02-22T06:20:25;56.47;;;27.40;;
22172;SDS011;11252;50.596;17.648;2023-02-22T06:22:54;53.50;;;27.43;;
22172;SDS011;11252;50.596;17.648;2023-02-22T06:25:24;68.47;;;34.77;;
22172;SDS011;11252;50.596;17.648;2023-02-22T06:27:53;65.40;;;36.17;;
22172;SDS011;11252;50.596;17.648;2023-02-22T06:30:22;63.67;;;33.70;;
22172;SDS011;11252;50.596;17.648;2023-02-22T06:32:50;122.70;;;69.33;;
22172;SDS011;11252;50.596;17.648;2023-02-22T06:35:19;92.57;;;50.70;;
22172;SDS011;11252;50.596;17.648;2023-02-22T06:37:47;53.00;;;31.60;;
22172;SDS011;11252;50.596;17.648;2023-02-22T06:40:15;55.37;;;33.20;;
22172;SDS011;11252;50.596;17.648;2023-02-22T06:42:42;116.97;;;71.97;;
22172;SDS011;11252;50.596;17.648;2023-02-22T06:45:10;119.50;;;70.00;;
22172;SDS011;11252;50.596;17.648;2023-02-22T06:47:40;135.27;;;82.07;;
22172;SDS011;11252;50.596;17.648;2023-02-22T06:50:17;132.93;;;83.67;;
22172;SDS011;11252;50.596;17.648;2023-02-22T06:52:51;123.63;;;77.23;;
22172;SDS011;11252;50.596;17.648;2023-02-22T06:55:21;91.23;;;55.50;;
22172;SDS011;11252;50.596;17.648;2023-02-22T06:57:50;82.40;;;49.63;;
22172;SDS011;11252;50.596;17.648;2023-02-22T07:00:19;69.27;;;41.40;;
22172;SDS011;11252;50.596;17.648;2023-02-22T07:02:47;66.73;;;38.13;;
22172;SDS011;11252;50.596;17.648;2023-02-22T07:05:15;54.70;;;33.57;;
22172;SDS011;11252;50.596;17.648;2023-02-22T07:07:44;57.20;;;35.07;;
22172;SDS011;11252;50.596;17.648;2023-02-22T07:10:23;74.57;;;46.17;;
22172;SDS011;11252;50.596;17.648;2023-02-22T07:12:52;74.33;;;48.03;;
22172;SDS011;11252;50.596;17.648;2023-02-22T07:15:21;138.90;;;86.70;;
22172;SDS011;11252;50.596;17.648;2023-02-22T07:17:49;271.13;;;164.00;;
22172;SDS011;11252;50.596;17.648;2023-02-22T07:20:18;200.97;;;127.07;;
22172;SDS011;11252;50.596;17.648;2023-02-22T07:22:47;132.33;;;84.67;;
22172;SDS011;11252;50.596;17.648;2023-02-22T07:25:18;94.03;;;58.47;;
22172;SDS011;11252;50.596;17.648;2023-02-22T07:27:46;70.70;;;39.10;;
22172;SDS011;11252;50.596;17.648;2023-02-22T07:30:18;67.93;;;38.07;;
22172;SDS011;11252;50.596;17.648;2023-02-22T07:32:56;72.50;;;38.47;;
22172;SDS011;11252;50.596;17.648;2023-02-22T07:35:27;66.00;;;32.43;;
22172;SDS011;11252;50.596;17.648;2023-02-22T07:38:05;49.30;;;21.70;;
22172;SDS011;11252;50.596;17.648;2023-02-22T07:40:36;39.67;;;16.50;;
22172;SDS011;11252;50.596;17.648;2023-02-22T07:43:11;45.23;;;17.10;;
22172;SDS011;11252;50.596;17.648;2023-02-22T07:45:50;27.67;;;11.47;;
22172;SDS011;11252;50.596;17.648;2023-02-22T07:48:19;22.53;;;10.77;;
22172;SDS011;11252;50.596;17.648;2023-02-22T07:50:49;24.60;;;8.40;;
22172;SDS011;11252;50.596;17.648;2023-02-22T07:53:24;19.30;;;7.17;;
22172;SDS011;11252;50.596;17.648;2023-02-22T07:55:56;19.80;;;6.67;;
22172;SDS011;11252;50.596;17.648;2023-02-22T07:58:26;22.57;;;7.60;;
22172;SDS011;11252;50.596;17.648;2023-02-22T08:00:56;23.73;;;7.97;;
22172;SDS011;11252;50.596;17.648;2023-02-22T08:03:24;24.90;;;7.93;;
22172;SDS011;11252;50.596;17.648;2023-02-22T08:05:54;19.80;;;8.13;;
22172;SDS011;11252;50.596;17.648;2023-02-22T08:08:22;17.10;;;6.43;;
22172;SDS011;11252;50.596;17.648;2023-02-22T08:10:50;21.40;;;6.80;;
22172;SDS011;11252;50.596;17.648;2023-02-22T08:13:18;24.30;;;6.07;;
22172;SDS011;11252;50.596;17.648;2023-02-22T08:15:48;19.63;;;6.60;;
22172;SDS011;11252;50.596;17.648;2023-02-22T08:18:17;19.70;;;6.30;;
22172;SDS011;11252;50.596;17.648;2023-02-22T08:20:46;30.37;;;16.37;;
22172;SDS011;11252;50.596;17.648;2023-02-22T08:23:14;23.60;;;9.67;;
22172;SDS011;11252;50.596;17.648;2023-02-22T08:25:43;16.37;;;5.87;;
22172;SDS011;11252;50.596;17.648;2023-02-22T08:28:11;23.50;;;6.43;;
22172;SDS011;11252;50.596;17.648;2023-02-22T08:30:41;20.23;;;5.67;;
22172;SDS011;11252;50.596;17.648;2023-02-22T08:33:09;13.33;;;5.67;;
22172;SDS011;11252;50.596;17.648;2023-02-22T08:35:40;16.03;;;6.33;;
22172;SDS011;11252;50.596;17.648;2023-02-22T08:38:13;20.23;;;8.03;;
22172;SDS011;11252;50.596;17.648;2023-02-22T08:40:47;33.47;;;8.50;;
22172;SDS011;11252;50.596;17.648;2023-02-22T08:43:16;28.07;;;8.07;;
22172;SDS011;11252;50.596;17.648;2023-02-22T08:45:44;20.43;;;6.07;;
22172;SDS011;11252;50.596;17.648;2023-02-22T08:48:12;13.63;;;5.30;;
22172;SDS011;11252;50.596;17.648;2023-02-22T08:50:40;23.50;;;6.30;;
22172;SDS011;11252;50.596;17.648;2023-02-22T08:53:10;27.60;;;12.43;;
22172;SDS011;11252;50.596;17.648;2023-02-22T08:55:39;21.60;;;8.20;;
22172;SDS011;11252;50.596;17.648;2023-02-22T08:58:08;28.63;;;13.60;;
22172;SDS011;11252;50.596;17.648;2023-02-22T09:00:36;18.33;;;5.30;;
22172;SDS011;11252;50.596;17.648;2023-02-22T09:03:05;23.57;;;7.43;;
22172;SDS011;11252;50.596;17.648;2023-02-22T09:05:35;15.47;;;5.53;;
22172;SDS011;11252;50.596;17.648;2023-02-22T09:08:02;16.67;;;5.40;;
22172;SDS011;11252;50.596;17.648;2023-02-22T09:10:31;122.83;;;79.70;;
22172;SDS011;11252;50.596;17.648;2023-02-22T09:12:59;37.17;;;21.13;;
22172;SDS011;11252;50.596;17.648;2023-02-22T09:15:28;37.00;;;26.07;;
22172;SDS011;11252;50.596;17.648;2023-02-22T09:17:56;13.17;;;6.10;;
22172;SDS011;11252;50.596;17.648;2023-02-22T09:20:25;18.97;;;6.60;;
22172;SDS011;11252;50.596;17.648;2023-02-22T09:22:53;13.73;;;6.40;;
22172;SDS011;11252;50.596;17.648;2023-02-22T09:25:21;20.80;;;7.00;;
22172;SDS011;11252;50.596;17.648;2023-02-22T09:27:49;21.43;;;8.40;;
22172;SDS011;11252;50.596;17.648;2023-02-22T09:30:26;15.53;;;5.40;;
22172;SDS011;11252;50.596;17.648;2023-02-22T09:33:03;20.77;;;6.13;;
22172;SDS011;11252;50.596;17.648;2023-02-22T09:35:31;23.30;;;5.77;;
22172;SDS011;11252;50.596;17.648;2023-02-22T09:38:02;24.70;;;6.73;;
22172;SDS011;11252;50.596;17.648;2023-02-22T09:40:32;20.43;;;7.30;;
22172;SDS011;11252;50.596;17.648;2023-02-22T09:49:23;19.87;;;5.53;;
22172;SDS011;11252;50.596;17.648;2023-02-22T09:51:59;36.20;;;18.73;;
22172;SDS011;11252;50.596;17.648;2023-02-22T09:54:41;36.93;;;20.77;;
22172;SDS011;11252;50.596;17.648;2023-02-22T09:57:13;18.60;;;7.53;;
22172;SDS011;11252;50.596;17.648;2023-02-22T09:59:46;93.63;;;64.17;;
22172;SDS011;11252;50.596;17.648;2023-02-22T10:02:28;29.13;;;15.50;;
22172;SDS011;11252;50.596;17.648;2023-02-22T10:05:07;28.87;;;12.33;;
22172;SDS011;11252;50.596;17.648;2023-02-22T10:07:54;37.40;;;20.70;;
22172;SDS011;11252;50.596;17.648;2023-02-22T10:10:26;28.80;;;16.20;;
22172;SDS011;11252;50.596;17.648;2023-02-22T10:16:01;23.07;;;7.83;;
22172;SDS011;11252;50.596;17.648;2023-02-22T10:18:44;21.03;;;9.20;;
22172;SDS011;11252;50.596;17.648;2023-02-22T10:27:17;24.17;;;7.37;;
22172;SDS011;11252;50.596;17.648;2023-02-22T10:29:52;25.50;;;9.20;;
22172;SDS011;11252;50.596;17.648;2023-02-22T10:32:26;75.60;;;44.30;;
22172;SDS011;11252;50.596;17.648;2023-02-22T10:35:01;26.70;;;10.30;;
22172;SDS011;11252;50.596;17.648;2023-02-22T10:37:39;19.33;;;6.07;;
22172;SDS011;11252;50.596;17.648;2023-02-22T10:42:43;15.97;;;5.80;;
22172;SDS011;11252;50.596;17.648;2023-02-22T10:45:18;20.87;;;7.83;;
22172;SDS011;11252;50.596;17.648;2023-02-22T10:47:53;21.57;;;5.37;;
22172;SDS011;11252;50.596;17.648;2023-02-22T10:50:25;14.67;;;5.00;;
22172;SDS011;11252;50.596;17.648;2023-02-22T10:52:55;13.63;;;3.37;;
22172;SDS011;11252;50.596;17.648;2023-02-22T10:55:23;20.73;;;5.23;;
22172;SDS011;11252;50.596;17.648;2023-02-22T10:57:50;14.50;;;4.70;;
22172;SDS011;11252;50.596;17.648;2023-02-22T11:00:37;19.80;;;5.03;;
22172;SDS011;11252;50.596;17.648;2023-02-22T11:03:14;14.23;;;4.20;;
22172;SDS011;11252;50.596;17.648;2023-02-22T11:05:44;17.37;;;5.53;;
22172;SDS011;11252;50.596;17.648;2023-02-22T11:10:53;18.73;;;5.30;;
22172;SDS011;11252;50.596;17.648;2023-02-22T11:13:26;10.70;;;3.80;;
22172;SDS011;11252;50.596;17.648;2023-02-22T11:16:18;13.00;;;4.20;;
22172;SDS011;11252;50.596;17.648;2023-02-22T11:19:02;26.07;;;4.80;;
22172;SDS011;11252;50.596;17.648;2023-02-22T11:21:41;20.93;;;6.83;;
22172;SDS011;11252;50.596;17.648;2023-02-22T11:24:09;19.73;;;6.53;;
22172;SDS011;11252;50.596;17.648;2023-02-22T11:26:42;15.83;;;5.60;;
22172;SDS011;11252;50.596;17.648;2023-02-22T11:29:16;27.90;;;6.57;;
22172;SDS011;11252;50.596;17.648;2023-02-22T11:31:46;18.27;;;5.63;;
22172;SDS011;11252;50.596;17.648;2023-02-22T11:34:28;16.77;;;5.20;;
22172;SDS011;11252;50.596;17.648;2023-02-22T11:40:06;11.07;;;3.97;;
22172;SDS011;11252;50.596;17.648;2023-02-22T11:42:38;14.53;;;4.00;;
22172;SDS011;11252;50.596;17.648;2023-02-22T11:45:13;17.30;;;5.53;;
22172;SDS011;11252;50.596;17.648;2023-02-22T11:47:50;14.10;;;6.07;;
22172;SDS011;11252;50.596;17.648;2023-02-22T11:50:35;10.83;;;3.97;;
22172;SDS011;11252;50.596;17.648;2023-02-22T11:53:28;17.07;;;6.70;;
22172;SDS011;11252;50.596;17.648;2023-02-22T12:13:17;15.37;;;4.90;;
22172;SDS011;11252;50.596;17.648;2023-02-22T12:18:32;15.37;;;6.13;;
22172;SDS011;11252;50.596;17.648;2023-02-22T12:21:14;19.90;;;7.90;;
22172;SDS011;11252;50.596;17.648;2023-02-22T12:26:15;15.27;;;5.27;;
22172;SDS011;11252;50.596;17.648;2023-02-22T12:31:45;11.83;;;4.07;;
22172;SDS011;11252;50.596;17.648;2023-02-22T12:36:57;12.23;;;5.87;;
22172;SDS011;11252;50.596;17.648;2023-02-22T12:40:06;19.43;;;5.17;;
22172;SDS011;11252;50.596;17.648;2023-02-22T12:42:48;14.47;;;7.40;;
22172;SDS011;11252;50.596;17.648;2023-02-22T12:50:57;13.00;;;4.03;;
22172;SDS011;11252;50.596;17.648;2023-02-22T12:53:36;14.27;;;7.77;;
22172;SDS011;11252;50.596;17.648;2023-02-22T12:56:17;14.57;;;4.63;;
22172;SDS011;11252;50.596;17.648;2023-02-22T12:58:48;12.67;;;3.87;;
22172;SDS011;11252;50.596;17.648;2023-02-22T13:01:31;15.37;;;7.23;;
22172;SDS011;11252;50.596;17.648;2023-02-22T13:04:03;21.67;;;5.43;;
22172;SDS011;11252;50.596;17.648;2023-02-22T13:14:51;25.30;;;13.03;;
22172;SDS011;11252;50.596;17.648;2023-02-22T13:17:35;21.63;;;12.37;;
22172;SDS011;11252;50.596;17.648;2023-02-22T13:26:03;12.73;;;8.00;;
22172;SDS011;11252;50.596;17.648;2023-02-22T13:28:40;21.50;;;12.67;;
22172;SDS011;11252;50.596;17.648;2023-02-22T13:36:53;22.37;;;14.20;;
22172;SDS011;11252;50.596;17.648;2023-02-22T13:45:26;16.93;;;9.10;;
22172;SDS011;11252;50.596;17.648;2023-02-22T13:54:00;11.63;;;5.03;;
22172;SDS011;11252;50.596;17.648;2023-02-22T13:56:34;13.07;;;5.80;;
22172;SDS011;11252;50.596;17.648;2023-02-22T13:59:02;11.77;;;4.18;;
22172;SDS011;11252;50.596;17.648;2023-02-22T14:04:21;10.10;;;4.50;;
22172;SDS011;11252;50.596;17.648;2023-02-22T14:07:01;15.90;;;7.22;;
22172;SDS011;11252;50.596;17.648;2023-02-22T14:09:51;6.07;;;3.03;;
22172;SDS011;11252;50.596;17.648;2023-02-22T14:20:33;29.25;;;15.23;;
22172;SDS011;11252;50.596;17.648;2023-02-22T14:23:48;35.03;;;20.40;;
22172;SDS011;11252;50.596;17.648;2023-02-22T14:25:49;18.17;;;8.55;;
22172;SDS011;11252;50.596;17.648;2023-02-22T14:28:35;22.15;;;13.07;;
22172;SDS011;11252;50.596;17.648;2023-02-22T14:31:07;10.48;;;4.43;;
22172;SDS011;11252;50.596;17.648;2023-02-22T14:33:52;30.55;;;11.05;;
22172;SDS011;11252;50.596;17.648;2023-02-22T14:42:30;9.23;;;4.38;;
22172;SDS011;11252;50.596;17.648;2023-02-22T14:47:52;7.80;;;2.60;;
22172;SDS011;11252;50.596;17.648;2023-02-22T14:55:40;9.30;;;2.78;;
22172;SDS011;11252;50.596;17.648;2023-02-22T15:00:45;9.68;;;3.75;;
22172;SDS011;11252;50.596;17.648;2023-02-22T15:03:24;9.15;;;3.13;;
22172;SDS011;11252;50.596;17.648;2023-02-22T15:06:04;8.93;;;3.40;;
22172;SDS011;11252;50.596;17.648;2023-02-22T15:08:31;11.70;;;4.63;;
22172;SDS011;11252;50.596;17.648;2023-02-22T15:10:59;10.02;;;3.90;;
22172;SDS011;11252;50.596;17.648;2023-02-22T15:13:29;8.50;;;4.33;;
22172;SDS011;11252;50.596;17.648;2023-02-22T15:16:01;12.93;;;4.27;;
22172;SDS011;11252;50.596;17.648;2023-02-22T15:21:14;11.60;;;4.83;;
22172;SDS011;11252;50.596;17.648;2023-02-22T15:23:51;14.07;;;4.57;;
22172;SDS011;11252;50.596;17.648;2023-02-22T15:29:24;10.63;;;4.30;;
22172;SDS011;11252;50.596;17.648;2023-02-22T15:32:49;19.03;;;9.57;;
22172;SDS011;11252;50.596;17.648;2023-02-22T15:35:13;15.20;;;6.20;;
22172;SDS011;11252;50.596;17.648;2023-02-22T15:37:45;16.30;;;6.33;;
22172;SDS011;11252;50.596;17.648;2023-02-22T15:40:14;12.37;;;4.93;;
22172;SDS011;11252;50.596;17.648;2023-02-22T15:42:47;13.37;;;4.03;;
22172;SDS011;11252;50.596;17.648;2023-02-22T15:45:20;10.90;;;3.63;;
22172;SDS011;11252;50.596;17.648;2023-02-22T15:47:51;12.77;;;4.00;;
22172;SDS011;11252;50.596;17.648;2023-02-22T15:50:25;13.03;;;5.10;;
22172;SDS011;11252;50.596;17.648;2023-02-22T15:53:07;11.40;;;4.47;;
22172;SDS011;11252;50.596;17.648;2023-02-22T15:55:47;8.43;;;4.03;;
22172;SDS011;11252;50.596;17.648;2023-02-22T15:58:21;10.83;;;4.60;;
22172;SDS011;11252;50.596;17.648;2023-02-22T16:03:29;16.00;;;4.70;;
22172;SDS011;11252;50.596;17.648;2023-02-22T16:06:12;13.77;;;5.50;;
22172;SDS011;11252;50.596;17.648;2023-02-22T16:08:50;11.40;;;5.20;;
22172;SDS011;11252;50.596;17.648;2023-02-22T16:11:30;16.37;;;6.20;;
22172;SDS011;11252;50.596;17.648;2023-02-22T16:14:02;19.33;;;8.20;;
22172;SDS011;11252;50.596;17.648;2023-02-22T16:16:35;18.47;;;8.83;;
22172;SDS011;11252;50.596;17.648;2023-02-22T16:21:58;30.67;;;11.03;;
22172;SDS011;11252;50.596;17.648;2023-02-22T16:24:32;27.20;;;12.20;;
22172;SDS011;11252;50.596;17.648;2023-02-22T16:27:03;27.53;;;13.70;;
22172;SDS011;11252;50.596;17.648;2023-02-22T16:32:51;28.13;;;16.53;;
22172;SDS011;11252;50.596;17.648;2023-02-22T16:35:25;24.83;;;14.20;;
22172;SDS011;11252;50.596;17.648;2023-02-22T16:37:58;21.20;;;11.57;;
22172;SDS011;11252;50.596;17.648;2023-02-22T16:40:27;30.37;;;12.47;;
22172;SDS011;11252;50.596;17.648;2023-02-22T16:42:58;23.67;;;9.37;;
22172;SDS011;11252;50.596;17.648;2023-02-22T16:45:28;18.30;;;7.10;;
22172;SDS011;11252;50.596;17.648;2023-02-22T16:47:55;11.20;;;5.70;;
22172;SDS011;11252;50.596;17.648;2023-02-22T16:50:24;22.07;;;7.87;;
22172;SDS011;11252;50.596;17.648;2023-02-22T16:52:52;17.97;;;7.50;;
22172;SDS011;11252;50.596;17.648;2023-02-22T16:55:21;18.93;;;8.53;;
22172;SDS011;11252;50.596;17.648;2023-02-22T16:57:50;27.00;;;10.17;;
22172;SDS011;11252;50.596;17.648;2023-02-22T17:00:26;29.30;;;11.83;;
22172;SDS011;11252;50.596;17.648;2023-02-22T17:02:58;22.23;;;10.40;;
22172;SDS011;11252;50.596;17.648;2023-02-22T17:05:29;21.27;;;10.23;;
22172;SDS011;11252;50.596;17.648;2023-02-22T17:08:02;28.00;;;13.20;;
22172;SDS011;11252;50.596;17.648;2023-02-22T17:10:30;36.63;;;15.53;;
22172;SDS011;11252;50.596;17.648;2023-02-22T17:12:58;34.73;;;17.83;;
22172;SDS011;11252;50.596;17.648;2023-02-22T17:15:45;43.97;;;22.77;;
22172;SDS011;11252;50.596;17.648;2023-02-22T17:18:13;42.13;;;21.43;;
22172;SDS011;11252;50.596;17.648;2023-02-22T17:20:51;33.20;;;16.37;;
22172;SDS011;11252;50.596;17.648;2023-02-22T17:23:20;38.80;;;18.20;;
22172;SDS011;11252;50.596;17.648;2023-02-22T17:28:20;47.10;;;22.00;;
22172;SDS011;11252;50.596;17.648;2023-02-22T17:30:49;36.70;;;19.07;;
22172;SDS011;11252;50.596;17.648;2023-02-22T17:33:18;28.70;;;12.53;;
22172;SDS011;11252;50.596;17.648;2023-02-22T17:35:48;30.30;;;12.87;;